Socorro, NM

10:18 AM MDT on April 26, 2015 (GMT -0600)
Bursum Place | | Change Station
CLOSE
Current Station
Personal Weather Station
Location: Socorro, NM
Elevation: 4660 ft
Nearby Weather Stations

Elev 4660 ft 34.07 °N, 106.90 °W | Updated 12 minutes ago

Overcast
Overcast
55.8 °F
Feels Like 55.8 °F
N
0.0
Wind Variable Wind from NNE
Gusts 8.0 mph

Today
High -- | Low -- °F
--% Chance of Precip.
Yesterday
High -- | Low -- °F
Precip. -- in
6:23 AM 7:47 PM
First Quarter, 56% visible
Pressure 29.72 in
Visibility 10.0 miles
Clouds Overcast 6500 ft
Dew Point 36 °F
Humidity 47%
Rainfall 0.00 in
Snow Depth Not available.
UV 2 out of 12
Pollen 4.10 out of 12
Air Quality Not available.
Flu Activity Local Activity
METAR KONM 261555Z AUTO 33006KT 10SM OVC065 13/00 A2972 RMK AO2 T01321004

More Conditions Fewer Conditions

Pressure 29.72 in
Visibility 10.0 miles
Clouds Overcast 6500 ft
Dew Point 36 °F
Humidity 47%
Rainfall 0.00 in
Snow Depth Not available.
UV 2 out of 12
Pollen 4.10 out of 12
Air Quality Not available.
Flu Activity Local Activity
METAR KONM 261555Z AUTO 33006KT 10SM OVC065 13/00 A2972 RMK AO2 T01321004

More Conditions Fewer Conditions

The full scope of the disaster following a powerful 7.8-magnitude earthquake in Nepal may not come into view for days, but global charities are already sending emergency aid. Click to see how you can help.
Nowcast | as of 9:30 am MDT on April 26, 2015

Through 11 am MDT...scattered to numerous showers and a few short lived thunderstorms will move north and northeast over much of central and portions of western New Mexico the rest of the morning and beyond. The more persistent rain...with snow above about 7500 feet...will fall along and up to about 70 miles either side of the Rio Grande Valley. Rainfall amounts through 11 am will range from several hundreths to one quarter inch. Isolated amounts to one third of an inch are possible. Snow accumulations up to 2 inches are possible above 8000 or 8500 feet...though Road surfaces should remain mainly wet below 8500 or 9000 feet due to the recent warmth and daylight. The heaviest precipitation during this period should impact locales near Santa Fe...Los Alamos...Embudo...Jemez Springs... La Cueva and Cuba.

×

10-Day Weather Forecast

Almanac

Astronomy

Apr. 26, 2015 Rise Set
Actual Time
Civil Twilight
Nautical Twilight
Astronomical Twilight
Moon
Length of Visible Light
Length of Day
Tomorrow will be .
, % of the Moon is Illuminated

Today's Extremes

State Highs State Lows

Community

WunderPhotos

Upload Photos

1,817,048 photos uploaded!

WunderBlogs® & News

Nearby

Air Quality

  Air Quality AQ Index Pollutant
Not available.

Snow Depth

Station Depth Elevation

Earthquake Activity

City Distance Mag. Time & Date
Minimum magnitude displayed is 2.5.

Coastal Water Temperatures

Place Temperature

Stations

Nearby Weather Stations

Station Location Temp. Windchill Dew Point Humidity Wind Precip. Elev Updated Type